Time;durP1;ratioP1;P1;durP2;ratioP2;P2;SDS_P1;SDS_P2;PMS_P1;PMS_P2;Temp;Humidity;BMP_temperature;BMP_pressure;BME280_temperature;BME280_humidity;BME280_pressure;Samples;Min_cycle;Max_cycle;Signal;HPM_P1;HPM_P2
2022/08/09 00:00:32;;;;;;;7.50;1.98;;;21.20;89.60;;;;;;4958057;28;20100;-78
2022/08/09 00:02:58;;;;;;;2.92;2.20;;;21.20;89.70;;;;;;4957895;28;20047;-78
2022/08/09 00:05:24;;;;;;;3.80;1.75;;;21.10;89.80;;;;;;4943466;28;20047;-78
2022/08/09 00:07:50;;;;;;;6.85;1.92;;;21.20;90.00;;;;;;4945316;28;20122;-79
2022/08/09 00:10:16;;;;;;;5.43;2.05;;;21.10;89.90;;;;;;4960089;28;20039;-78
2022/08/09 00:12:42;;;;;;;5.32;1.95;;;21.20;90.00;;;;;;4943126;28;20483;-78
2022/08/09 00:15:08;;;;;;;2.67;1.90;;;21.10;90.00;;;;;;4946952;28;20497;-78
2022/08/09 00:17:37;;;;;;;4.65;2.13;;;21.10;90.10;;;;;;4958691;28;20043;-78
2022/08/09 00:20:03;;;;;;;3.08;1.95;;;21.10;90.00;;;;;;4960103;28;20063;-78
2022/08/09 00:22:29;;;;;;;3.88;2.33;;;21.10;90.00;;;;;;4959420;28;20048;-79
2022/08/09 00:24:55;;;;;;;4.78;2.00;;;21.00;90.10;;;;;;4934090;28;20039;-79
2022/08/09 00:27:20;;;;;;;9.05;3.00;;;21.00;90.40;;;;;;4963012;28;20078;-78
2022/08/09 00:29:47;;;;;;;5.35;1.90;;;21.00;90.20;;;;;;4943382;28;20105;-79
2022/08/09 00:32:14;;;;;;;7.07;1.85;;;20.90;90.20;;;;;;4959540;28;20047;-79
2022/08/09 00:34:39;;;;;;;4.40;2.35;;;20.90;90.20;;;;;;4958143;28;20095;-79
2022/08/09 00:37:06;;;;;;;2.60;2.10;;;20.90;90.30;;;;;;4943654;28;20100;-78
2022/08/09 00:39:32;;;;;;;7.15;2.28;;;20.80;90.30;;;;;;4958779;28;20068;-78
2022/08/09 00:41:58;;;;;;;3.45;2.13;;;20.80;90.40;;;;;;4930193;28;20150;-78
2022/08/09 00:44:23;;;;;;;5.28;1.98;;;20.80;90.40;;;;;;4928057;28;20573;-78
2022/08/09 00:46:49;;;;;;;2.90;1.90;;;20.80;90.40;;;;;;4942923;28;20125;-78
2022/08/09 00:49:15;;;;;;;3.28;1.90;;;20.60;90.40;;;;;;4938445;28;20052;-78
2022/08/09 00:51:41;;;;;;;6.13;2.13;;;20.70;90.50;;;;;;4928061;28;20926;-78
2022/08/09 00:54:07;;;;;;;4.97;2.10;;;20.60;90.50;;;;;;4942819;28;20050;-78
2022/08/09 00:56:33;;;;;;;3.80;2.45;;;20.60;90.50;;;;;;4933572;28;20043;-78
2022/08/09 00:58:58;;;;;;;3.65;2.30;;;20.60;90.60;;;;;;4929059;28;20059;-78
2022/08/09 01:01:31;;;;;;;4.82;1.92;;;20.60;90.60;;;;;;4945898;28;20039;-78
2022/08/09 01:04:11;;;;;;;2.85;1.80;;;20.50;90.60;;;;;;4961169;28;20053;-78
2022/08/09 01:06:51;;;;;;;3.50;2.10;;;20.50;90.70;;;;;;4965150;28;20047;-78
2022/08/09 01:09:17;;;;;;;5.00;2.55;;;20.40;90.70;;;;;;4967528;28;20051;-78
2022/08/09 01:12:03;;;;;;;3.03;1.98;;;20.40;91.00;;;;;;5028664;28;20525;-78
2022/08/09 01:14:42;;;;;;;2.70;1.80;;;20.40;90.70;;;;;;4962801;28;20058;-78
2022/08/09 01:17:22;;;;;;;5.45;2.17;;;20.40;90.80;;;;;;4962151;28;20436;-78
2022/08/09 01:19:59;;;;;;;7.22;2.35;;;20.40;90.80;;;;;;4931049;28;20082;-78
2022/08/09 01:22:59;;;;;;;3.65;2.47;;;20.30;90.90;;;;;;4960546;28;20073;-78
2022/08/09 01:25:30;;;;;;;3.38;2.30;;;20.30;90.90;;;;;;4961803;28;20046;-78
2022/08/09 01:27:58;;;;;;;4.60;2.03;;;20.20;90.90;;;;;;4960650;28;20587;-77
2022/08/09 01:30:27;;;;;;;4.72;2.13;;;20.20;91.00;;;;;;4963281;28;20047;-78
2022/08/09 01:32:55;;;;;;;4.65;1.98;;;20.10;91.10;;;;;;4945099;28;20035;-78
2022/08/09 01:35:28;;;;;;;3.22;2.53;;;20.20;91.10;;;;;;4960631;28;20039;-78
2022/08/09 01:37:57;;;;;;;4.60;2.00;;;20.10;91.10;;;;;;4931697;28;20049;-78
2022/08/09 01:40:25;;;;;;;4.13;2.30;;;20.10;91.20;;;;;;4961729;28;20126;-79
2022/08/09 01:42:54;;;;;;;7.40;2.95;;;20.10;91.20;;;;;;4961181;28;20066;-78
2022/08/09 01:45:21;;;;;;;4.82;2.28;;;20.00;91.20;;;;;;4960824;28;20049;-78
2022/08/09 01:47:47;;;;;;;5.20;2.08;;;20.00;91.30;;;;;;4931312;28;20511;-78
2022/08/09 01:50:14;;;;;;;6.22;2.85;;;19.90;91.30;;;;;;4961465;28;20105;-78
2022/08/09 01:52:42;;;;;;;5.68;3.00;;;19.90;91.60;;;;;;4945604;28;20047;-78
2022/08/09 01:55:09;;;;;;;4.35;2.63;;;19.90;91.40;;;;;;4961097;28;20150;-78
2022/08/09 01:57:44;;;;;;;4.88;3.58;;;19.90;91.40;;;;;;4945067;28;20555;-78
2022/08/09 02:00:13;;;;;;;2.42;2.05;;;19.80;91.50;;;;;;4947705;28;20108;-78
2022/08/09 02:02:43;;;;;;;3.55;2.25;;;19.80;91.60;;;;;;4959382;28;20067;-78
2022/08/09 02:05:11;;;;;;;3.45;2.25;;;19.70;91.60;;;;;;4929193;28;20083;-78
2022/08/09 02:07:43;;;;;;;4.05;2.10;;;19.80;91.70;;;;;;4932100;28;20059;-78
2022/08/09 02:10:19;;;;;;;2.95;1.90;;;19.70;91.70;;;;;;4942253;28;20811;-78
2022/08/09 02:12:47;;;;;;;5.18;2.35;;;19.70;91.80;;;;;;4963374;28;20047;-78
2022/08/09 02:15:15;;;;;;;3.38;1.90;;;19.70;91.90;;;;;;4945254;28;20439;-77
2022/08/09 02:17:45;;;;;;;5.35;2.20;;;19.60;92.00;;;;;;4946177;28;20066;-78
2022/08/09 02:20:11;;;;;;;5.43;1.90;;;19.60;92.10;;;;;;4929954;28;20429;-78
2022/08/09 02:22:47;;;;;;;6.18;2.47;;;19.60;92.20;;;;;;4960488;28;20162;-78
2022/08/09 02:25:18;;;;;;;6.97;2.90;;;19.60;92.30;;;;;;4930411;28;20054;-78
2022/08/09 02:28:02;;;;;;;3.65;1.95;;;19.50;92.30;;;;;;4958286;28;20046;-78
2022/08/09 02:30:32;;;;;;;5.68;2.83;;;19.50;92.30;;;;;;4944031;28;20063;-78
2022/08/09 02:32:59;;;;;;;2.80;1.75;;;19.50;92.50;;;;;;4943746;28;20050;-78
2022/08/09 02:35:27;;;;;;;4.65;2.10;;;19.40;92.50;;;;;;4929381;28;20044;-78
2022/08/09 02:37:57;;;;;;;3.47;2.10;;;19.40;92.60;;;;;;4930388;28;20510;-78
2022/08/09 02:40:24;;;;;;;5.82;2.20;;;19.50;92.70;;;;;;4962097;28;20098;-78
2022/08/09 02:42:54;;;;;;;3.80;2.25;;;19.40;92.70;;;;;;4953767;28;20054;-78
2022/08/09 02:45:28;;;;;;;3.75;2.22;;;19.40;92.80;;;;;;4952144;28;20510;-78
2022/08/09 02:47:57;;;;;;;5.72;2.40;;;19.30;92.90;;;;;;4945453;28;20043;-78
2022/08/09 02:50:32;;;;;;;3.25;2.60;;;19.30;93.00;;;;;;4929055;28;20043;-78
2022/08/09 02:53:03;;;;;;;3.35;2.10;;;19.20;93.10;;;;;;4945323;28;20048;-78
2022/08/09 02:55:31;;;;;;;3.10;1.98;;;19.20;93.20;;;;;;4928276;28;20086;-78
2022/08/09 02:57:59;;;;;;;4.13;2.45;;;19.20;93.20;;;;;;4945313;28;20210;-78
2022/08/09 03:00:26;;;;;;;4.93;3.05;;;19.10;93.30;;;;;;4945039;28;20055;-78
2022/08/09 03:02:54;;;;;;;3.60;2.38;;;19.10;93.40;;;;;;4928894;28;20134;-78
2022/08/09 03:05:21;;;;;;;4.07;2.10;;;19.10;93.50;;;;;;4951264;28;20098;-78
2022/08/09 03:07:50;;;;;;;4.28;2.90;;;19.10;93.60;;;;;;4947321;28;20480;-77
2022/08/09 03:10:16;;;;;;;4.35;2.33;;;19.10;93.70;;;;;;4951828;28;20123;-78
2022/08/09 03:13:06;;;;;;;3.72;2.05;;;19.00;93.70;;;;;;4948703;28;20122;-85
2022/08/09 03:16:13;;;;;;;4.40;3.10;;;18.80;93.80;;;;;;4931132;28;20593;-84
2022/08/09 03:19:02;;;;;;;7.03;2.38;;;19.00;93.90;;;;;;4945487;28;20102;-83
2022/08/09 03:21:37;;;;;;;6.20;2.38;;;18.90;94.00;;;;;;4932873;28;20102;-84
2022/08/09 03:24:08;;;;;;;5.88;2.30;;;18.60;94.10;;;;;;4946246;28;20238;-84
2022/08/09 03:26:39;;;;;;;5.53;2.28;;;18.80;94.20;;;;;;4949474;28;20572;-84
2022/08/09 03:29:17;;;;;;;6.13;2.92;;;18.90;94.30;;;;;;4945469;28;20616;-84
2022/08/09 03:31:50;;;;;;;4.47;2.88;;;18.90;94.30;;;;;;4945261;28;20058;-84
2022/08/09 03:34:22;;;;;;;4.95;3.00;;;18.90;94.40;;;;;;4947756;28;20044;-83
2022/08/09 03:36:59;;;;;;;4.43;2.88;;;18.90;94.40;;;;;;4928542;28;20350;-83
2022/08/09 03:39:33;;;;;;;6.03;3.28;;;18.70;94.50;;;;;;4947179;28;20106;-83
2022/08/09 03:42:04;;;;;;;3.53;2.65;;;18.80;94.50;;;;;;4935871;28;20111;-84
2022/08/09 03:44:43;;;;;;;6.67;2.77;;;18.80;94.50;;;;;;5026196;28;20124;-83
2022/08/09 03:47:21;;;;;;;5.22;2.38;;;19.00;94.70;;;;;;5020465;28;20382;-83
2022/08/09 03:49:49;;;;;;;3.92;2.35;;;18.70;94.70;;;;;;5024370;28;20111;-84
2022/08/09 03:52:22;;;;;;;7.25;2.70;;;18.70;94.70;;;;;;5040790;28;20168;-83
2022/08/09 03:55:01;;;;;;;10.50;3.28;;;18.70;94.80;;;;;;5010855;28;20609;-83
2022/08/09 03:57:40;;;;;;;;;;;;;;;;;;;;;
2022/08/09 04:00:23;;;;;;;4.00;2.70;;;18.70;95.00;;;;;;5041450;28;39036;-83
2022/08/09 04:02:54;;;;;;;8.32;3.70;;;18.60;95.00;;;;;;5027591;28;20095;-83
2022/08/09 04:05:23;;;;;;;4.40;2.35;;;18.60;95.10;;;;;;5042368;28;20902;-83
2022/08/09 04:07:53;;;;;;;5.65;2.45;;;18.60;95.10;;;;;;5044708;28;20117;-83
2022/08/09 04:11:04;;;;;;;8.65;2.80;;;18.60;95.20;;;;;;5040347;28;20098;-83
2022/08/09 04:13:33;;;;;;;3.38;2.58;;;18.60;95.20;;;;;;5038755;28;20056;-84
2022/08/09 04:16:09;;;;;;;5.80;2.85;;;18.50;95.30;;;;;;5025130;28;20489;-83
2022/08/09 04:18:35;;;;;;;3.67;2.88;;;18.50;95.40;;;;;;5040611;28;20037;-83
2022/08/09 04:21:08;;;;;;;4.53;2.53;;;18.50;95.40;;;;;;5043257;28;20056;-83
2022/08/09 04:23:43;;;;;;;7.75;2.92;;;18.30;95.40;;;;;;5016279;28;20049;-83
2022/08/09 04:26:20;;;;;;;6.10;2.47;;;18.40;95.50;;;;;;5015471;28;20045;-84
2022/08/09 04:29:03;;;;;;;4.82;3.03;;;18.40;95.60;;;;;;5036970;28;21199;-83
2022/08/09 04:31:37;;;;;;;5.00;2.60;;;18.30;95.60;;;;;;5027210;28;20045;-84
2022/08/09 04:34:20;;;;;;;6.13;2.97;;;18.30;95.70;;;;;;5021567;28;20100;-83
2022/08/09 04:36:59;;;;;;;4.13;3.17;;;18.30;95.80;;;;;;5038877;28;20104;-83
2022/08/09 04:39:39;;;;;;;5.78;3.50;;;18.30;95.90;;;;;;5008067;28;20133;-83
2022/08/09 04:42:06;;;;;;;3.85;3.15;;;18.30;95.90;;;;;;5022905;28;20046;-83
2022/08/09 04:44:42;;;;;;;5.25;3.05;;;18.20;95.90;;;;;;4959829;28;20054;-83
2022/08/09 04:47:15;;;;;;;7.35;2.67;;;18.20;96.00;;;;;;4945321;28;20054;-83
2022/08/09 04:50:17;;;;;;;5.00;2.35;;;17.90;96.00;;;;;;4943723;28;20050;-83
2022/08/09 04:53:06;;;;;;;11.50;4.33;;;18.20;96.00;;;;;;4944016;28;20647;-83
2022/08/09 04:55:53;;;;;;;7.90;2.85;;;18.30;96.20;;;;;;4956616;28;20259;-83
2022/08/09 04:58:27;;;;;;;4.55;2.97;;;17.80;96.00;;;;;;4944268;28;20049;-85
2022/08/09 05:00:56;;;;;;;5.38;2.70;;;18.40;96.30;;;;;;4960117;28;20062;-82
2022/08/09 05:03:27;;;;;;;4.95;3.45;;;18.10;96.30;;;;;;4957042;28;20096;-82
2022/08/09 05:06:06;;;;;;;6.80;3.13;;;18.10;96.30;;;;;;4958884;28;20066;-82
2022/08/09 05:08:35;;;;;;;6.93;3.35;;;18.10;96.40;;;;;;4931641;28;20042;-82
2022/08/09 05:11:37;;;;;;;6.75;3.00;;;18.10;96.80;;;;;;4930001;28;20141;-82
2022/08/09 05:14:14;;;;;;;8.27;3.35;;;18.10;96.50;;;;;;4944475;28;20043;-82
2022/08/09 05:16:51;;;;;;;4.40;2.92;;;18.10;96.60;;;;;;4940348;28;20058;-82
2022/08/09 05:19:35;;;;;;;5.20;3.83;;;18.10;96.60;;;;;;4937709;28;20046;-82
2022/08/09 05:22:10;;;;;;;4.60;2.88;;;17.90;96.60;;;;;;4962463;28;20090;-78
2022/08/09 05:25:07;;;;;;;4.35;2.70;;;18.00;96.70;;;;;;4939457;28;20054;-82
2022/08/09 05:27:46;;;;;;;5.97;3.67;;;18.00;96.80;;;;;;4950245;28;20071;-83
2022/08/09 05:30:38;;;;;;;8.80;3.55;;;18.00;97.00;;;;;;4976898;28;20058;-84
2022/08/09 05:33:37;;;;;;;5.82;2.67;;;18.30;97.00;;;;;;4974381;28;20103;-84
2022/08/09 05:36:36;;;;;;;5.57;2.72;;;18.00;97.00;;;;;;4974323;28;21268;-84
2022/08/09 05:39:16;;;;;;;9.25;3.45;;;18.00;97.10;;;;;;4962645;28;20901;-83
2022/08/09 05:41:58;;;;;;;5.15;3.15;;;17.90;97.10;;;;;;4953270;28;20054;-83
2022/08/09 05:44:37;;;;;;;;;;;18.00;97.20;;;;;;4963659;28;20105;-84
2022/08/09 05:47:32;;;;;;;9.95;3.20;;;17.90;97.20;;;;;;4960080;28;20452;-77
2022/08/09 05:50:03;;;;;;;5.82;2.90;;;18.10;97.40;;;;;;4963793;28;20046;-77
2022/08/09 05:52:54;;;;;;;8.95;3.58;;;17.90;97.40;;;;;;4955407;28;20045;-78
2022/08/09 05:55:30;;;;;;;8.48;3.42;;;18.00;97.50;;;;;;4958845;28;20560;-78
2022/08/09 05:59:01;;;;;;;8.93;3.60;;;18.00;97.70;;;;;;4952710;28;20054;-83
2022/08/09 06:04:59;;;;;;;3.88;2.72;;;18.10;97.70;;;;;;4964818;28;20110;-81
2022/08/09 06:07:35;;;;;;;7.28;3.00;;;18.20;97.70;;;;;;4948871;28;20126;-81
2022/08/09 06:10:17;;;;;;;4.78;2.78;;;18.10;97.80;;;;;;5032947;28;20051;-80
2022/08/09 06:12:55;;;;;;;4.85;3.08;;;18.30;97.80;;;;;;4955380;28;20051;-78
2022/08/09 06:15:27;;;;;;;10.05;3.53;;;18.20;97.70;;;;;;4968019;28;20050;-78
2022/08/09 06:18:22;;;;;;;5.72;3.15;;;18.20;97.90;;;;;;4965887;28;20124;-78
2022/08/09 06:21:19;;;;;;;5.78;3.05;;;18.10;97.90;;;;;;4952620;28;20043;-88
2022/08/09 06:24:07;;;;;;;9.15;3.40;;;18.20;98.00;;;;;;4956276;28;20064;-84
2022/08/09 06:26:50;;;;;;;;;;;;;;;;;;;;;
2022/08/09 06:29:43;;;;;;;4.15;2.88;;;18.30;98.10;;;;;;4966554;28;39438;-84
2022/08/09 06:32:22;;;;;;;6.10;3.35;;;18.30;98.10;;;;;;4936379;28;20058;-84
2022/08/09 06:35:24;;;;;;;6.38;3.38;;;18.20;98.20;;;;;;4954098;28;20119;-84
2022/08/09 06:38:20;;;;;;;5.47;3.07;;;18.30;98.20;;;;;;4998634;28;20101;-85
2022/08/09 06:41:01;;;;;;;17.88;5.18;;;18.30;98.30;;;;;;4964046;28;20051;-84
2022/08/09 06:43:40;;;;;;;8.93;3.70;;;18.30;98.40;;;;;;4966774;28;20607;-84
2022/08/09 06:46:18;;;;;;;5.10;3.38;;;18.30;98.40;;;;;;4963176;28;20100;-84
2022/08/09 06:49:20;;;;;;;4.28;3.03;;;18.40;98.40;;;;;;4965783;28;20579;-84
2022/08/09 06:51:57;;;;;;;6.13;3.05;;;18.40;98.40;;;;;;4947792;28;20141;-84
2022/08/09 06:54:47;;;;;;;;;;;;;;;;;;;;;
2022/08/09 07:00:52;;;;;;;5.22;2.97;;;18.50;98.60;;;;;;4944721;28;20500;-84
2022/08/09 07:03:39;;;;;;;4.90;3.28;;;18.80;98.70;;;;;;4963688;28;21404;-85
2022/08/09 07:06:56;;;;;;;5.65;2.85;;;18.50;98.70;;;;;;4947430;28;20085;-84
2022/08/09 07:12:38;;;;;;;7.30;3.17;;;18.70;98.70;;;;;;4915263;28;20050;-82
2022/08/09 07:15:20;;;;;;;6.28;3.58;;;18.60;98.70;;;;;;4938761;28;20050;-84
2022/08/09 07:18:03;;;;;;;5.53;3.13;;;18.50;98.70;;;;;;4946575;28;20133;-83
2022/08/09 07:20:36;;;;;;;6.20;2.80;;;17.90;98.60;;;;;;4964645;28;20043;-84
2022/08/09 07:23:25;;;;;;;6.55;2.83;;;18.90;98.90;;;;;;4931995;28;20055;-84
2022/08/09 07:26:24;;;;;;;5.38;2.60;;;18.70;98.90;;;;;;4962703;28;20043;-85
2022/08/09 07:29:08;;;;;;;4.90;2.70;;;18.70;98.80;;;;;;4932604;28;20630;-83
2022/08/09 07:32:00;;;;;;;4.07;2.60;;;18.80;98.90;;;;;;4932486;28;20138;-83
2022/08/09 07:34:46;;;;;;;5.88;2.85;;;18.80;98.90;;;;;;4938945;28;20138;-83
2022/08/09 07:37:57;;;;;;;6.85;3.05;;;18.90;98.80;;;;;;4963073;28;20133;-82
2022/08/09 07:40:45;;;;;;;4.85;2.40;;;18.90;98.80;;;;;;4946214;28;20864;-84
2022/08/09 07:43:54;;;;;;;;;;;;;;;;;;;;;
2022/08/09 07:52:56;;;;;;;4.13;2.22;;;19.10;98.80;;;;;;5039750;28;20044;-84
2022/08/09 07:55:34;;;;;;;6.45;2.45;;;19.70;98.80;;;;;;5042093;28;20054;-82
2022/08/09 08:01:37;;;;;;;4.75;2.78;;;19.20;98.60;;;;;;5059529;28;20049;-83
2022/08/09 08:07:21;;;;;;;7.13;3.03;;;19.30;98.60;;;;;;5048497;28;20072;-84
2022/08/09 08:10:02;;;;;;;5.80;3.22;;;19.40;98.50;;;;;;5035532;28;20057;-83
2022/08/09 08:12:31;;;;;;;9.73;3.40;;;19.40;98.50;;;;;;5018107;28;20875;-79
2022/08/09 08:14:57;;;;;;;6.05;2.40;;;19.40;98.70;;;;;;5041190;28;20056;-79
2022/08/09 08:17:23;;;;;;;11.75;3.22;;;19.50;98.40;;;;;;5027057;28;20101;-79
2022/08/09 08:19:49;;;;;;;3.85;2.17;;;19.50;98.40;;;;;;5023181;28;20577;-81
2022/08/09 08:22:18;;;;;;;8.07;2.53;;;19.60;98.40;;;;;;5019905;28;20135;-79
2022/08/09 08:24:48;;;;;;;10.25;2.42;;;19.60;98.30;;;;;;5036165;28;20037;-78
2022/08/09 08:27:14;;;;;;;4.97;2.63;;;19.60;98.60;;;;;;5019243;28;21644;-79
2022/08/09 08:29:39;;;;;;;7.20;2.65;;;19.70;98.20;;;;;;5038196;28;20067;-78
2022/08/09 08:32:06;;;;;;;4.45;2.40;;;19.70;98.40;;;;;;5040377;28;20130;-79
2022/08/09 08:34:32;;;;;;;3.90;2.35;;;19.80;98.10;;;;;;5044499;28;20595;-79
2022/08/09 08:36:57;;;;;;;4.10;3.38;;;19.80;98.10;;;;;;5005488;28;20061;-78
2022/08/09 08:39:23;;;;;;;4.60;2.67;;;19.90;98.10;;;;;;5024477;28;20045;-78
2022/08/09 08:41:50;;;;;;;4.90;2.78;;;19.90;98.10;;;;;;5037899;28;20044;-78
2022/08/09 08:44:18;;;;;;;4.45;2.17;;;19.90;98.10;;;;;;4976957;28;20055;-78
2022/08/09 08:46:45;;;;;;;5.00;2.70;;;19.90;98.00;;;;;;4934120;28;20054;-78
2022/08/09 08:49:12;;;;;;;2.92;2.15;;;20.00;97.90;;;;;;4962622;28;20074;-78
2022/08/09 08:51:39;;;;;;;5.28;2.30;;;20.00;97.80;;;;;;4960577;28;20537;-78
2022/08/09 08:54:07;;;;;;;3.67;1.90;;;20.10;97.80;;;;;;4961100;28;20039;-78
2022/08/09 08:56:37;;;;;;;4.50;2.80;;;20.10;97.80;;;;;;4959977;28;20043;-79
2022/08/09 08:59:09;;;;;;;4.68;2.05;;;20.10;97.70;;;;;;4959112;28;20058;-78
2022/08/09 09:01:36;;;;;;;5.53;2.20;;;20.20;97.80;;;;;;4940631;28;20538;-81
2022/08/09 09:04:09;;;;;;;8.20;2.75;;;20.20;97.60;;;;;;4959321;28;20517;-80
2022/08/09 09:06:36;;;;;;;6.63;2.92;;;20.30;97.40;;;;;;4960486;28;20072;-81
2022/08/09 09:09:04;;;;;;;2.95;1.90;;;20.30;97.30;;;;;;4958600;28;20050;-80
2022/08/09 09:11:30;;;;;;;6.68;2.58;;;20.30;97.20;;;;;;4959494;28;21262;-80
2022/08/09 09:14:01;;;;;;;3.83;1.70;;;20.30;97.20;;;;;;4961595;28;20043;-81
2022/08/09 09:16:31;;;;;;;3.83;2.40;;;20.30;97.00;;;;;;4961565;28;20058;-80
2022/08/09 09:18:59;;;;;;;4.25;2.08;;;20.10;96.70;;;;;;4963084;28;20533;-80
2022/08/09 09:21:31;;;;;;;4.10;2.10;;;20.50;96.80;;;;;;4933348;28;20134;-80
2022/08/09 09:24:24;;;;;;;6.68;2.13;;;20.60;96.80;;;;;;4946912;28;20046;-80
2022/08/09 09:27:00;;;;;;;3.60;2.28;;;20.60;96.80;;;;;;4945222;28;20594;-80
2022/08/09 09:29:31;;;;;;;5.75;1.95;;;20.50;96.80;;;;;;4945089;28;20138;-81
2022/08/09 09:31:57;;;;;;;6.35;2.13;;;20.60;96.80;;;;;;4964068;28;20059;-81
2022/08/09 09:34:23;;;;;;;4.32;2.25;;;20.70;96.80;;;;;;4933675;28;20158;-81
2022/08/09 09:36:56;;;;;;;8.38;2.42;;;20.70;96.80;;;;;;4932575;28;20055;-80
2022/08/09 09:39:24;;;;;;;3.63;2.22;;;20.70;96.70;;;;;;4934030;28;20133;-81
2022/08/09 09:42:03;;;;;;;6.97;2.78;;;20.80;96.40;;;;;;4947645;28;20043;-80
2022/08/09 09:44:44;;;;;;;4.07;2.35;;;20.80;96.60;;;;;;4964748;28;20133;-82
2022/08/09 09:47:55;;;;;;;3.90;2.45;;;20.90;96.40;;;;;;4950824;28;20907;-83
2022/08/09 09:50:54;;;;;;;2.65;2.05;;;21.20;96.30;;;;;;4948233;28;20051;-83
2022/08/09 09:53:44;;;;;;;2.38;2.10;;;21.10;96.30;;;;;;4934198;28;20058;-83
2022/08/09 09:56:44;;;;;;;4.93;2.25;;;21.00;96.00;;;;;;4936081;28;20048;-83
2022/08/09 09:59:49;;;;;;;;;;;;;;;;;;;;;
2022/08/09 10:02:53;;;;;;;3.47;1.70;;;21.20;95.80;;;;;;4960635;28;44432;-83
2022/08/09 10:05:51;;;;;;;2.83;2.10;;;21.40;95.80;;;;;;4959963;28;20055;-84
2022/08/09 10:08:35;;;;;;;3.30;1.80;;;21.10;95.60;;;;;;4951910;28;20066;-83
2022/08/09 10:14:29;;;;;;;3.33;2.58;;;21.40;95.30;;;;;;4967328;28;20047;-83
2022/08/09 10:17:56;;;;;;;4.55;2.00;;;21.60;95.10;;;;;;4952265;28;20055;-83
2022/08/09 10:23:45;;;;;;;2.97;2.10;;;21.90;94.80;;;;;;4956245;28;20083;-83
2022/08/09 10:29:20;;;;;;;4.55;1.95;;;21.40;94.60;;;;;;4971455;28;20042;-85
2022/08/09 10:31:58;;;;;;;4.43;1.92;;;21.80;94.60;;;;;;4963701;28;20046;-85
2022/08/09 10:34:53;;;;;;;3.90;1.88;;;21.90;94.20;;;;;;4950282;28;20082;-85
2022/08/09 10:38:03;;;;;;;4.55;2.45;;;21.90;94.00;;;;;;4964269;28;20043;-85
2022/08/09 10:40:44;;;;;;;4.68;2.05;;;22.10;93.80;;;;;;4951025;28;20054;-85
2022/08/09 10:43:25;;;;;;;5.13;1.98;;;22.00;93.70;;;;;;4936785;28;20070;-85
2022/08/09 10:46:10;;;;;;;;;;;;;;;;;;;;;
2022/08/09 10:48:52;;;;;;;6.88;2.17;;;22.00;93.70;;;;;;4966758;28;43433;-84
2022/08/09 10:51:51;;;;;;;6.63;2.40;;;22.50;93.30;;;;;;4973274;28;20134;-85
2022/08/09 10:57:48;;;;;;;4.55;1.98;;;22.40;92.40;;;;;;4986439;28;20054;-83
2022/08/09 11:00:53;;;;;;;3.78;2.08;;;22.10;92.30;;;;;;4960253;28;20047;-84
2022/08/09 11:03:46;;;;;;;3.83;1.95;;;22.40;92.50;;;;;;4968667;28;20056;-84
2022/08/09 11:06:53;;;;;;;3.97;1.83;;;22.40;92.50;;;;;;4959105;28;20184;-84
2022/08/09 11:09:54;;;;;;;4.65;2.08;;;22.40;92.30;;;;;;4939785;28;20055;-85
2022/08/09 11:13:20;;;;;;;;;;;;;;;;;;;;;
2022/08/09 11:19:12;;;;;;;8.45;2.38;;;22.50;91.70;;;;;;4965523;28;20569;-85
2022/08/09 11:22:22;;;;;;;7.50;2.28;;;22.60;91.60;;;;;;4965620;28;20609;-85
2022/08/09 11:25:23;;;;;;;3.38;2.15;;;22.70;91.70;;;;;;4966917;28;20748;-85
2022/08/09 11:28:59;;;;;;;4.50;1.70;;;22.80;91.10;;;;;;4937700;28;20089;-84
2022/08/09 11:31:55;;;;;;;4.75;1.67;;;22.90;90.90;;;;;;4948097;28;20285;-84
2022/08/09 11:34:37;;;;;;;2.60;1.60;;;22.80;90.90;;;;;;4947893;28;20544;-85
2022/08/09 11:37:37;;;;;;;6.70;2.25;;;23.00;90.70;;;;;;4948457;28;20046;-85
2022/08/09 11:44:10;;;;;;;5.38;2.53;;;23.00;90.50;;;;;;4993887;28;20158;-85
2022/08/09 11:47:46;;;;;;;5.47;2.10;;;23.00;90.30;;;;;;4953211;28;20533;-84
2022/08/09 11:51:00;;;;;;;2.45;1.80;;;23.10;90.00;;;;;;4947254;28;20136;-85
2022/08/09 11:53:42;;;;;;;5.65;2.20;;;23.20;90.20;;;;;;4935624;28;21261;-85
2022/08/09 11:56:27;;;;;;;2.55;1.67;;;23.10;90.10;;;;;;4933177;28;20539;-85
2022/08/09 11:59:10;;;;;;;2.97;2.22;;;23.30;90.10;;;;;;4964875;28;20126;-84
2022/08/09 12:01:45;;;;;;;2.97;1.70;;;23.00;90.00;;;;;;4970179;28;20134;-85
2022/08/09 12:04:34;;;;;;;;;;;;;;;;;;;;;
2022/08/09 12:10:42;;;;;;;7.10;2.15;;;23.30;89.70;;;;;;4968277;28;20100;-84
2022/08/09 12:13:47;;;;;;;;;;;;;;;;;;;;;
2022/08/09 12:16:41;;;;;;;6.20;2.47;;;23.50;89.20;;;;;;4970791;28;40604;-85
2022/08/09 12:19:37;;;;;;;3.50;2.05;;;23.60;88.60;;;;;;4933700;28;20050;-85
2022/08/09 12:22:10;;;;;;;3.80;2.15;;;23.70;88.40;;;;;;4954673;28;20055;-85
2022/08/09 12:32:05;;;;;;;2.15;1.25;;;23.90;87.20;;;;;;4970136;28;20194;-85
2022/08/09 12:35:05;;;;;;;;;;;;;;;;;;;;;
2022/08/09 12:37:53;;;;;;;5.93;1.98;;;23.80;87.10;;;;;;4968467;28;44732;-85
2022/08/09 12:44:06;;;;;;;2.90;1.70;;;24.10;85.70;;;;;;4964722;28;20094;-84
2022/08/09 12:46:59;;;;;;;3.15;1.80;;;24.20;84.80;;;;;;5025467;28;20072;-84
2022/08/09 12:49:45;;;;;;;3.42;2.00;;;24.10;84.80;;;;;;5025094;28;20047;-84
2022/08/09 12:53:15;;;;;;;2.85;1.77;;;24.20;84.70;;;;;;5042797;28;20053;-85
2022/08/09 12:56:25;;;;;;;2.92;1.63;;;24.10;84.30;;;;;;5042867;28;20152;-84
2022/08/09 12:59:39;;;;;;;2.13;1.30;;;24.30;83.70;;;;;;5025710;28;20843;-85
2022/08/09 13:02:17;;;;;;;3.15;1.17;;;24.20;83.10;;;;;;4983126;28;20263;-85
2022/08/09 13:05:19;;;;;;;3.47;1.50;;;24.10;83.30;;;;;;5041504;28;20131;-85
2022/08/09 13:08:28;;;;;;;4.23;1.80;;;24.20;83.40;;;;;;5021367;28;20531;-81
2022/08/09 13:11:26;;;;;;;3.28;1.55;;;24.40;82.10;;;;;;5042220;28;20586;-81
2022/08/09 13:14:00;;;;;;;7.88;1.77;;;24.50;81.70;;;;;;4997919;28;20053;-81
2022/08/09 13:17:26;;;;;;;;;;;;;;;;;;;;;
2022/08/09 13:20:16;;;;;;;9.00;2.00;;;24.60;81.70;;;;;;4988869;28;38585;-80
2022/08/09 13:23:44;;;;;;;10.93;2.55;;;24.70;81.30;;;;;;5008878;28;20086;-80
2022/08/09 13:26:40;;;;;;;4.65;1.67;;;24.70;81.20;;;;;;5009742;28;20054;-81
2022/08/09 13:29:41;;;;;;;;;;;;;;;;;;;;;
2022/08/09 13:32:11;;;;;;;3.60;1.30;;;24.70;81.40;;;;;;5004173;28;20042;-81
2022/08/09 13:35:08;;;;;;;;;;;;;;;;;;;;;
2022/08/09 13:38:04;;;;;;;9.27;1.70;;;24.60;81.10;;;;;;5004730;28;42102;-80
2022/08/09 13:40:59;;;;;;;5.50;1.85;;;24.80;80.70;;;;;;4995489;28;20042;-81
2022/08/09 13:43:39;;;;;;;4.22;1.67;;;24.70;80.70;;;;;;4994176;28;20923;-81
2022/08/09 13:46:31;;;;;;;;;;;;;;;;;;;;;
2022/08/09 13:49:21;;;;;;;4.22;2.15;;;24.90;79.70;;;;;;4946119;28;43360;-81
2022/08/09 13:55:04;;;;;;;3.97;1.75;;;24.80;79.30;;;;;;4958492;28;21312;-81
2022/08/09 13:57:54;;;;;;;3.72;1.77;;;25.00;79.20;;;;;;4958760;28;20738;-80
2022/08/09 14:00:25;;;;;;;1.55;1.30;;;25.00;79.00;;;;;;4955931;28;20109;-80
2022/08/09 14:03:13;;;;;;;5.15;2.08;;;25.10;78.20;;;;;;4932637;28;20112;-81
2022/08/09 14:05:59;;;;;;;;;;;;;;;;;;;;;
2022/08/09 14:09:05;;;;;;;3.45;1.50;;;25.10;78.40;;;;;;4950710;28;43793;-81
2022/08/09 14:12:05;;;;;;;4.47;1.90;;;25.10;78.20;;;;;;4949136;28;20055;-81
2022/08/09 14:14:43;;;;;;;2.78;1.40;;;25.30;78.50;;;;;;4948119;28;20181;-81
2022/08/09 14:17:29;;;;;;;3.00;1.38;;;24.90;77.90;;;;;;4947701;28;20055;-80
2022/08/09 14:20:49;;;;;;;4.30;1.45;;;25.10;78.20;;;;;;4944579;28;20043;-81
2022/08/09 14:23:43;;;;;;;;;;;;;;;;;;;;;
2022/08/09 14:26:34;;;;;;;3.60;1.80;;;25.20;78.20;;;;;;4949618;28;40264;-81
2022/08/09 14:29:41;;;;;;;5.32;2.30;;;25.20;77.90;;;;;;4931086;28;20545;-81
2022/08/09 14:32:39;;;;;;;2.53;1.50;;;25.20;77.90;;;;;;4947786;28;20078;-81
2022/08/09 14:35:28;;;;;;;2.28;1.50;;;25.40;78.00;;;;;;4951592;28;20264;-81
2022/08/09 14:38:30;;;;;;;2.22;1.50;;;25.30;77.70;;;;;;4933187;28;21409;-81
2022/08/09 14:41:08;;;;;;;2.13;1.55;;;25.40;77.70;;;;;;4945042;28;20047;-81
2022/08/09 14:44:10;;;;;;;;;;;;;;;;;;;;;
2022/08/09 14:46:53;;;;;;;5.10;2.05;;;25.50;77.60;;;;;;4967339;28;43113;-81
2022/08/09 14:49:28;;;;;;;3.22;1.30;;;25.50;76.90;;;;;;4952578;28;20176;-81
2022/08/09 14:51:59;;;;;;;3.78;1.63;;;25.70;76.80;;;;;;4963901;28;20078;-80
2022/08/09 14:54:51;;;;;;;2.67;1.58;;;25.60;76.50;;;;;;5033301;28;20050;-81
2022/08/09 14:57:38;;;;;;;1.80;1.40;;;25.60;76.70;;;;;;4934847;28;20074;-81
2022/08/09 15:00:37;;;;;;;4.15;1.73;;;25.50;77.30;;;;;;4950573;28;20703;-81
2022/08/09 15:03:41;;;;;;;2.75;1.70;;;25.70;76.60;;;;;;4948615;28;20047;-80
2022/08/09 15:09:31;;;;;;;2.28;1.65;;;25.60;76.70;;;;;;4969321;28;20035;-81
2022/08/09 15:12:23;;;;;;;4.53;1.80;;;25.60;76.60;;;;;;4968400;28;21602;-81
2022/08/09 15:14:52;;;;;;;3.10;1.88;;;25.70;76.80;;;;;;4971924;28;20082;-81
2022/08/09 15:17:35;;;;;;;5.82;2.00;;;25.60;76.90;;;;;;4964223;28;20041;-81
2022/08/09 15:20:25;;;;;;;3.63;1.83;;;25.70;77.00;;;;;;4967693;28;20048;-82
2022/08/09 15:23:24;;;;;;;4.20;1.40;;;25.70;77.00;;;;;;4953791;28;20118;-81